»·PEaware :: N1778 KMMH-KTVL

N1778 :: KMMH-KTVL

FLIGHT INFORMATION

Flight Status: Arrived
Operator: Privately registered:
United States
More flights under this callsign
Pilot: Anders S. (12537)
Aircraft: MOONEY M-20K/M ENCORE BRAVO
(M20T)
More flights by this aircraft type
Origin: KMMH Mammoth Yosemite
United States
Destination: KTVL Lake Tahoe
United States
More flights between these airports :: More routes between these airports
Route: DCT
File this flight plan on PilotEdge
Remarks:
Altitude:
(Current/Filed)
14,500ft
Speed:
(Current/Filed)
150kts
Departed: 19-Jul-17 12:42 PM
Arrived: 19-Jul-17 01:29 PM
Distance/Time
Traveled:
94nm/0:47
Distance/Time
To Go:
Arrived

Flight Plot

Page will automatically refresh every two minutes.


Map Options




Map Legend


Flown Route
Filed Route
Departure Airport
Arrival Airport
Navaid (VOR, NDB)
Fix

Horizontal Profiles

Position Reports

Time Latitude Longitude Heading Altitude Ground
Speed
19-Jul-17 12:41 37.626703 -118.842777 11 7131ft 0kts
19-Jul-17 12:42 37.626759 -118.842676 107 7131ft 2kts
19-Jul-17 12:43 37.627146 -118.847206 291 7131ft 18kts
19-Jul-17 12:44 37.626971 -118.849433 110 7131ft 21kts
19-Jul-17 12:45 37.625422 -118.827917 28 7420ft 93kts
19-Jul-17 12:46 37.647650 -118.844836 324 8260ft 99kts
19-Jul-17 12:47 37.665907 -118.862967 324 8943ft 101kts
19-Jul-17 12:48 37.688485 -118.885362 324 9740ft 106kts
19-Jul-17 12:49 37.717161 -118.914099 323 10620ft 119kts
19-Jul-17 12:50 37.745124 -118.941776 324 11315ft 139kts
19-Jul-17 12:51 37.772356 -118.968944 322 11860ft 159kts
19-Jul-17 12:52 37.808804 -119.005501 318 12502ft 174kts
19-Jul-17 12:53 37.847538 -119.044641 316 13066ft 182kts
19-Jul-17 12:54 37.887436 -119.085185 315 13584ft 183kts
19-Jul-17 12:55 37.927402 -119.125647 315 14016ft 186kts
19-Jul-17 12:56 37.968079 -119.166534 316 14427ft 187kts
19-Jul-17 12:57 38.010548 -119.209324 316 14506ft 201kts
19-Jul-17 12:58 38.054919 -119.254455 316 14505ft 206kts
19-Jul-17 12:59 38.099876 -119.300323 316 14503ft 208kts
19-Jul-17 13:00 38.144958 -119.346340 316 14514ft 208kts
19-Jul-17 13:01 38.190033 -119.392594 315 14505ft 207kts
19-Jul-17 13:02 38.238600 -119.422968 343 14514ft 215kts
19-Jul-17 13:03 38.296601 -119.437984 344 14509ft 216kts
19-Jul-17 13:04 38.355315 -119.453641 343 14485ft 216kts
19-Jul-17 13:05 38.414070 -119.470162 342 14477ft 216kts
19-Jul-17 13:06 38.472684 -119.487763 342 14477ft 216kts
19-Jul-17 13:07 38.530824 -119.506283 341 14478ft 215kts
19-Jul-17 13:08 38.588844 -119.525663 340 14477ft 216kts
19-Jul-17 13:09 38.646725 -119.546350 339 14480ft 215kts
19-Jul-17 13:11 38.683593 -119.560105 338 14480ft 215kts
19-Jul-17 13:12 38.740290 -119.582342 337 14479ft 215kts
19-Jul-17 13:13 38.797214 -119.606029 336 14475ft 215kts
19-Jul-17 13:14 38.852864 -119.630511 335 14471ft 214kts
19-Jul-17 13:15 38.909810 -119.657016 334 14470ft 214kts
19-Jul-17 13:16 38.965385 -119.684420 333 14467ft 214kts
19-Jul-17 13:17 39.020534 -119.712709 332 14500ft 212kts
19-Jul-17 13:18 39.075244 -119.742186 331 14478ft 213kts
19-Jul-17 13:19 39.129330 -119.773145 330 14472ft 212kts
19-Jul-17 13:20 39.182720 -119.805778 328 14470ft 212kts
19-Jul-17 13:21 39.235716 -119.840634 317 13708ft 202kts
19-Jul-17 13:22 39.228107 -119.893857 225 12795ft 167kts
19-Jul-17 13:23 39.196648 -119.937394 228 11877ft 163kts
19-Jul-17 13:24 39.165600 -119.977607 193 11125ft 155kts
19-Jul-17 13:25 39.122085 -119.977520 181 10350ft 160kts
19-Jul-17 13:26 39.076448 -119.976058 178 9518ft 166kts
19-Jul-17 13:27 39.030187 -119.974733 178 8657ft 166kts
19-Jul-17 13:28 38.986873 -119.972788 178 8035ft 131kts
19-Jul-17 13:29 38.954722 -119.977745 190 7634ft 115kts
19-Jul-17 13:30 38.922779 -119.986797 191 6858ft 125kts
19-Jul-17 13:31 38.896227 -119.994551 193 6267ft 54kts
19-Jul-17 13:32 38.891861 -119.998113 285 6267ft 16kts
19-Jul-17 13:33 38.892078 -119.999102 281 6267ft 0kts
19-Jul-17 13:34 38.892078 -119.999102 281 6267ft 0kts
19-Jul-17 13:35 38.892078 -119.999102 281 6267ft 0kts

Navigation Log

Ident Type
Flight plan parsing failed, navigation log unavailable